createdAt,value
2019-05-09T00:02:40.886Z,4.17
2019-05-09T00:07:46.347Z,5.40
2019-05-09T00:12:53.908Z,3.97
2019-05-09T00:17:58.962Z,4.03
2019-05-09T00:23:04.578Z,3.97
2019-05-09T00:28:10.343Z,3.77
2019-05-09T00:33:17.450Z,3.53
2019-05-09T00:38:24.639Z,3.63
2019-05-09T00:43:30.205Z,4.33
2019-05-09T00:48:38.274Z,4.07
2019-05-09T00:53:45.739Z,4.00
2019-05-09T00:58:53.584Z,3.63
2019-05-09T01:03:58.495Z,3.33
2019-05-09T01:09:05.396Z,3.40
2019-05-09T01:14:11.062Z,3.43
2019-05-09T01:19:16.248Z,3.70
2019-05-09T01:24:23.243Z,3.77
2019-05-09T01:29:30.094Z,3.37
2019-05-09T01:34:36.679Z,3.57
2019-05-09T01:39:43.499Z,3.70
2019-05-09T01:44:49.252Z,3.60
2019-05-09T01:49:54.620Z,3.87
2019-05-09T01:55:00.094Z,3.63
2019-05-09T02:00:09.141Z,3.57
2019-05-09T02:05:14.592Z,3.33
2019-05-09T02:10:20.055Z,2.98
2019-05-09T02:15:34.160Z,3.77
2019-05-09T02:20:40.464Z,4.53
2019-05-09T02:25:45.853Z,4.13
2019-05-09T02:30:54.845Z,4.17
2019-05-09T02:36:02.036Z,3.70
2019-05-09T02:41:08.553Z,4.27
2019-05-09T02:46:18.870Z,3.10
2019-05-09T02:51:23.310Z,3.63
2019-05-09T02:56:29.987Z,3.83
2019-05-09T03:01:40.561Z,3.50
2019-05-09T03:06:48.890Z,3.33
2019-05-09T03:11:54.147Z,3.30
2019-05-09T03:16:59.975Z,3.63
2019-05-09T03:22:12.871Z,3.55
2019-05-09T03:27:28.505Z,3.47
2019-05-09T03:32:32.888Z,3.63
2019-05-09T03:37:38.148Z,3.83
2019-05-09T03:42:43.937Z,3.70
2019-05-09T03:47:52.664Z,4.03
2019-05-09T03:52:58.066Z,3.47
2019-05-09T03:58:10.672Z,3.50
2019-05-09T04:03:19.931Z,3.73
2019-05-09T04:08:23.328Z,3.63
2019-05-09T04:13:30.418Z,3.43
2019-05-09T04:18:37.694Z,3.90
2019-05-09T04:23:42.817Z,3.40
2019-05-09T04:28:48.078Z,3.67
2019-05-09T04:33:53.879Z,4.20
2019-05-09T04:38:59.349Z,3.80
2019-05-09T04:44:14.186Z,4.10
2019-05-09T04:49:13.649Z,4.07
2019-05-09T04:54:19.385Z,4.30
2019-05-09T04:59:24.682Z,4.00
2019-05-09T05:04:30.553Z,3.97
2019-05-09T05:09:37.953Z,4.00
2019-05-09T05:14:43.003Z,4.47
2019-05-09T05:19:49.370Z,4.33
2019-05-09T05:24:59.567Z,4.23
2019-05-09T05:30:07.343Z,4.27
2019-05-09T05:35:17.918Z,4.30
2019-05-09T05:40:23.280Z,4.00
2019-05-09T05:45:30.620Z,4.83
2019-05-09T05:50:38.233Z,4.37
2019-05-09T05:55:43.343Z,4.20
2019-05-09T06:00:48.854Z,4.47
2019-05-09T06:05:54.715Z,4.87
2019-05-09T06:11:00.705Z,4.70
2019-05-09T06:16:08.439Z,4.90
2019-05-09T06:21:13.379Z,4.57
2019-05-09T06:26:19.025Z,4.90
2019-05-09T06:31:24.132Z,4.63
2019-05-09T06:36:29.550Z,4.43
2019-05-09T06:41:34.670Z,4.50
2019-05-09T06:46:41.694Z,4.90
2019-05-09T06:51:47.681Z,4.67
2019-05-09T06:56:53.357Z,5.13
2019-05-09T07:02:08.245Z,4.77
2019-05-09T07:07:14.998Z,4.67
2019-05-09T07:12:20.219Z,4.37
2019-05-09T07:17:31.887Z,4.97
2019-05-09T07:22:39.265Z,5.50
2019-05-09T07:27:48.327Z,13.00
2019-05-09T07:33:00.725Z,6.37
2019-05-09T07:38:08.274Z,5.60
2019-05-09T07:43:13.023Z,5.90
2019-05-09T07:48:18.217Z,4.60
2019-05-09T07:53:23.633Z,5.40
2019-05-09T07:58:29.112Z,5.63
2019-05-09T08:03:34.529Z,5.60
2019-05-09T08:08:40.100Z,4.57
2019-05-09T08:13:45.214Z,5.10
2019-05-09T08:18:51.118Z,5.70
2019-05-09T08:23:57.848Z,6.10
2019-05-09T08:29:03.390Z,5.43
2019-05-09T08:34:08.688Z,5.27
2019-05-09T08:39:14.121Z,5.87
2019-05-09T08:44:19.757Z,5.13
2019-05-09T08:49:28.651Z,5.40
2019-05-09T08:54:44.515Z,4.87
2019-05-09T08:59:50.864Z,5.53
2019-05-09T09:04:58.312Z,5.10
2019-05-09T09:10:04.555Z,6.67
2019-05-09T09:15:10.585Z,6.10
2019-05-09T09:20:18.194Z,5.27
2019-05-09T09:25:25.210Z,5.50
2019-05-09T09:30:30.744Z,5.87
2019-05-09T09:35:38.273Z,6.03
2019-05-09T09:40:43.852Z,5.80
2019-05-09T09:46:05.119Z,6.57
2019-05-09T09:50:58.013Z,6.53
2019-05-09T09:56:03.721Z,6.70
2019-05-09T10:01:10.865Z,6.47
2019-05-09T10:06:16.193Z,6.23
2019-05-09T10:11:21.745Z,5.87
2019-05-09T10:16:47.636Z,5.57
2019-05-09T10:21:53.799Z,5.70
2019-05-09T10:27:09.813Z,5.57
2019-05-09T10:32:18.205Z,5.40
2019-05-09T10:37:23.351Z,5.97
2019-05-09T10:42:30.498Z,5.80
2019-05-09T10:47:37.765Z,5.70
2019-05-09T10:52:43.374Z,5.63
2019-05-09T10:57:52.436Z,5.97
2019-05-09T11:02:58.376Z,5.80
2019-05-09T11:08:03.894Z,5.73
2019-05-09T11:13:09.738Z,5.97
2019-05-09T11:18:15.277Z,5.63
2019-05-09T11:23:20.537Z,5.80
2019-05-09T11:28:28.390Z,5.57
2019-05-09T11:33:33.227Z,5.77
2019-05-09T11:38:43.658Z,5.53
2019-05-09T11:43:45.454Z,6.10
2019-05-09T11:48:50.646Z,6.80
2019-05-09T11:53:58.164Z,5.93
2019-05-09T11:59:03.482Z,9.27
2019-05-09T12:04:08.710Z,9.10
2019-05-09T12:09:14.981Z,7.00
2019-05-09T12:14:20.505Z,8.20
2019-05-09T12:19:29.313Z,7.53
2019-05-09T12:24:33.027Z,7.20
2019-05-09T12:29:38.908Z,8.80
2019-05-09T12:34:44.257Z,8.57
2019-05-09T12:39:49.629Z,7.70
2019-05-09T12:44:55.177Z,6.93
2019-05-09T12:50:02.816Z,7.40
2019-05-09T12:55:08.365Z,13.27
2019-05-09T13:00:15.667Z,24.23
2019-05-09T13:05:21.002Z,9.13
2019-05-09T13:10:28.225Z,8.67
2019-05-09T13:15:38.486Z,12.00
2019-05-09T13:20:43.743Z,7.80
2019-05-09T13:25:50.340Z,9.03
2019-05-09T13:30:58.452Z,7.23
2019-05-09T13:36:03.779Z,7.80
2019-05-09T13:41:09.024Z,6.70
2019-05-09T13:46:14.525Z,7.67
2019-05-09T13:51:20.119Z,8.93
2019-05-09T13:56:27.803Z,7.50
2019-05-09T14:01:32.673Z,7.90
2019-05-09T14:06:38.952Z,8.50
2019-05-09T14:11:47.967Z,8.80
2019-05-09T14:16:52.828Z,7.57
2019-05-09T14:21:58.789Z,8.40
2019-05-09T14:27:05.144Z,7.83
2019-05-09T14:32:10.606Z,7.73
2019-05-09T14:37:17.994Z,12.10
2019-05-09T14:42:22.911Z,7.07
2019-05-09T14:47:28.789Z,7.80
2019-05-09T14:52:33.957Z,7.00
2019-05-09T14:57:39.098Z,8.50
2019-05-09T15:02:44.682Z,7.23
2019-05-09T15:07:53.589Z,5.60
2019-05-09T15:12:58.580Z,6.60
2019-05-09T15:18:05.042Z,5.47
2019-05-09T15:23:10.399Z,6.83
2019-05-09T15:28:17.611Z,6.90
2019-05-09T15:33:23.272Z,7.00
2019-05-09T15:38:29.163Z,7.40
2019-05-09T15:43:34.796Z,7.80
2019-05-09T15:48:40.563Z,8.00
2019-05-09T15:53:48.503Z,8.60
2019-05-09T15:58:53.033Z,8.77
2019-05-09T16:03:58.625Z,8.37
2019-05-09T16:09:08.003Z,8.30
2019-05-09T16:14:11.562Z,9.40
2019-05-09T16:19:16.826Z,10.47
2019-05-09T16:24:22.229Z,10.20
2019-05-09T16:29:30.369Z,10.77
2019-05-09T16:34:34.870Z,12.40
2019-05-09T16:39:40.171Z,13.43
2019-05-09T16:44:47.733Z,12.30
2019-05-09T16:49:52.960Z,12.20
2019-05-09T16:55:08.868Z,12.70
2019-05-09T17:00:18.388Z,13.88
2019-05-09T17:05:24.667Z,15.10
2019-05-09T17:10:29.814Z,24.57
2019-05-09T17:15:35.329Z,21.20
2019-05-09T17:20:55.025Z,19.87
2019-05-09T17:26:00.477Z,19.20
2019-05-09T17:31:07.938Z,18.40
2019-05-09T17:36:13.439Z,23.73
2019-05-09T17:41:19.016Z,18.80
2019-05-09T17:46:24.574Z,63.97
2019-05-09T17:51:33.906Z,17.00
2019-05-09T17:56:37.861Z,24.23
2019-05-09T18:01:44.904Z,19.67
2019-05-09T18:06:50.776Z,24.00
2019-05-09T18:11:57.822Z,28.17
2019-05-09T18:17:03.341Z,34.23
2019-05-09T18:22:09.069Z,49.20
2019-05-09T18:27:14.721Z,35.27
2019-05-09T18:32:38.297Z,25.47
2019-05-09T18:37:44.077Z,23.83
2019-05-09T18:42:49.399Z,31.33
2019-05-09T18:47:54.655Z,36.43
2019-05-09T18:53:00.215Z,35.37
2019-05-09T18:58:07.105Z,34.47
2019-05-09T19:03:12.533Z,26.70
2019-05-09T19:08:18.377Z,32.97
2019-05-09T19:13:23.574Z,29.37
2019-05-09T19:18:30.703Z,40.07
2019-05-09T19:23:36.110Z,31.97
2019-05-09T19:28:41.404Z,29.93
2019-05-09T19:33:46.853Z,27.97
2019-05-09T19:38:52.279Z,29.47
2019-05-09T19:43:57.619Z,28.33
2019-05-09T19:49:03.197Z,29.43
2019-05-09T19:54:09.070Z,40.73
2019-05-09T19:59:14.729Z,27.77
2019-05-09T20:04:19.994Z,27.67
2019-05-09T20:09:27.710Z,27.13
2019-05-09T20:14:34.949Z,26.17
2019-05-09T20:19:40.721Z,26.97
2019-05-09T20:24:46.216Z,29.47
2019-05-09T20:29:51.530Z,31.27
2019-05-09T20:34:56.692Z,31.37
2019-05-09T20:40:02.174Z,29.43
2019-05-09T20:45:08.462Z,29.60
2019-05-09T20:50:13.925Z,29.40
2019-05-09T20:55:19.230Z,31.30
2019-05-09T21:00:24.965Z,31.57
2019-05-09T21:05:30.469Z,31.50
2019-05-09T21:10:36.885Z,29.93
2019-05-09T21:15:42.463Z,30.60
2019-05-09T21:20:48.147Z,31.03
2019-05-09T21:25:53.673Z,32.20
2019-05-09T21:31:01.022Z,32.23
2019-05-09T21:36:06.415Z,33.40
2019-05-09T21:41:12.357Z,33.07
2019-05-09T21:46:18.841Z,32.63
2019-05-09T21:51:24.303Z,33.50
2019-05-09T21:56:30.055Z,32.47
2019-05-09T22:01:36.015Z,32.30
2019-05-09T22:06:41.380Z,30.80
2019-05-09T22:11:47.044Z,32.57
2019-05-09T22:16:53.343Z,32.67
2019-05-09T22:21:58.676Z,32.67
2019-05-09T22:27:04.679Z,33.03
2019-05-09T22:32:10.129Z,32.00
2019-05-09T22:37:15.495Z,34.83
2019-05-09T22:42:20.743Z,32.60
2019-05-09T22:47:26.209Z,32.37
2019-05-09T22:52:31.976Z,30.77
2019-05-09T22:57:37.686Z,33.17
2019-05-09T23:02:43.092Z,33.73
2019-05-09T23:07:48.326Z,34.53
2019-05-09T23:12:53.996Z,33.23
2019-05-09T23:17:59.190Z,34.97
2019-05-09T23:23:06.296Z,36.03
2019-05-09T23:28:11.703Z,35.00
2019-05-09T23:33:17.102Z,34.90
2019-05-09T23:38:22.659Z,33.17
2019-05-09T23:43:28.170Z,33.67
2019-05-09T23:48:33.483Z,34.10
2019-05-09T23:53:39.036Z,34.23
2019-05-09T23:59:02.734Z,34.57
